sensor_id;sensor_type;location;lat;lon;timestamp;temperature;humidity
44166;DHT22;30476;53.468;9.826;2023-02-28T00:00:31;4.60;99.90
44166;DHT22;30476;53.468;9.826;2023-02-28T00:02:57;4.60;99.90
44166;DHT22;30476;53.468;9.826;2023-02-28T00:05:24;4.60;99.90
44166;DHT22;30476;53.468;9.826;2023-02-28T00:07:50;4.50;99.90
44166;DHT22;30476;53.468;9.826;2023-02-28T00:10:19;4.50;99.90
44166;DHT22;30476;53.468;9.826;2023-02-28T00:12:47;4.50;99.90
44166;DHT22;30476;53.468;9.826;2023-02-28T00:15:13;4.50;99.90
44166;DHT22;30476;53.468;9.826;2023-02-28T00:17:39;4.60;99.90
44166;DHT22;30476;53.468;9.826;2023-02-28T00:20:06;4.60;99.90
44166;DHT22;30476;53.468;9.826;2023-02-28T00:22:36;4.60;99.90
44166;DHT22;30476;53.468;9.826;2023-02-28T00:25:03;4.60;99.90
44166;DHT22;30476;53.468;9.826;2023-02-28T00:27:29;4.50;99.90
44166;DHT22;30476;53.468;9.826;2023-02-28T00:29:55;4.60;99.90
44166;DHT22;30476;53.468;9.826;2023-02-28T00:32:21;4.50;99.90
44166;DHT22;30476;53.468;9.826;2023-02-28T00:34:47;4.50;99.90
44166;DHT22;30476;53.468;9.826;2023-02-28T00:37:13;4.60;99.90
44166;DHT22;30476;53.468;9.826;2023-02-28T00:39:39;4.50;99.90
44166;DHT22;30476;53.468;9.826;2023-02-28T00:42:06;4.50;99.90
44166;DHT22;30476;53.468;9.826;2023-02-28T00:44:32;4.50;99.90
44166;DHT22;30476;53.468;9.826;2023-02-28T00:46:58;4.50;99.90
44166;DHT22;30476;53.468;9.826;2023-02-28T00:49:25;4.50;99.90
44166;DHT22;30476;53.468;9.826;2023-02-28T00:51:51;4.40;99.90
44166;DHT22;30476;53.468;9.826;2023-02-28T00:54:18;4.50;99.90
44166;DHT22;30476;53.468;9.826;2023-02-28T00:56:43;4.50;99.90
44166;DHT22;30476;53.468;9.826;2023-02-28T00:59:12;4.50;99.90
44166;DHT22;30476;53.468;9.826;2023-02-28T01:01:38;4.40;99.90
44166;DHT22;30476;53.468;9.826;2023-02-28T01:04:04;4.30;99.90
44166;DHT22;30476;53.468;9.826;2023-02-28T01:06:30;4.30;99.90
44166;DHT22;30476;53.468;9.826;2023-02-28T01:08:57;4.30;99.90
44166;DHT22;30476;53.468;9.826;2023-02-28T01:11:24;4.30;99.90
44166;DHT22;30476;53.468;9.826;2023-02-28T01:13:49;4.30;99.90
44166;DHT22;30476;53.468;9.826;2023-02-28T01:16:15;4.30;99.90
44166;DHT22;30476;53.468;9.826;2023-02-28T01:18:42;4.30;99.90
44166;DHT22;30476;53.468;9.826;2023-02-28T01:21:11;4.20;99.90
44166;DHT22;30476;53.468;9.826;2023-02-28T01:23:39;4.20;99.90
44166;DHT22;30476;53.468;9.826;2023-02-28T01:26:10;4.20;99.90
44166;DHT22;30476;53.468;9.826;2023-02-28T01:28:37;4.20;99.90
44166;DHT22;30476;53.468;9.826;2023-02-28T01:31:03;4.20;99.90
44166;DHT22;30476;53.468;9.826;2023-02-28T01:33:29;4.20;99.90
44166;DHT22;30476;53.468;9.826;2023-02-28T01:36:06;4.20;99.90
44166;DHT22;30476;53.468;9.826;2023-02-28T01:38:33;4.10;99.90
44166;DHT22;30476;53.468;9.826;2023-02-28T01:40:59;4.10;99.90
44166;DHT22;30476;53.468;9.826;2023-02-28T01:43:29;4.10;99.90
44166;DHT22;30476;53.468;9.826;2023-02-28T01:45:56;4.10;99.90
44166;DHT22;30476;53.468;9.826;2023-02-28T01:48:32;4.10;99.90
44166;DHT22;30476;53.468;9.826;2023-02-28T01:51:02;4.10;99.90
44166;DHT22;30476;53.468;9.826;2023-02-28T01:53:33;4.10;99.90
44166;DHT22;30476;53.468;9.826;2023-02-28T01:56:03;4.10;99.90
44166;DHT22;30476;53.468;9.826;2023-02-28T01:58:29;4.10;99.90
44166;DHT22;30476;53.468;9.826;2023-02-28T02:00:55;4.10;99.90
44166;DHT22;30476;53.468;9.826;2023-02-28T02:03:23;4.10;99.90
44166;DHT22;30476;53.468;9.826;2023-02-28T02:05:49;4.00;99.90
44166;DHT22;30476;53.468;9.826;2023-02-28T02:08:19;3.90;99.90
44166;DHT22;30476;53.468;9.826;2023-02-28T02:11:00;4.00;99.90
44166;DHT22;30476;53.468;9.826;2023-02-28T02:14:01;4.00;99.90
44166;DHT22;30476;53.468;9.826;2023-02-28T02:17:02;3.90;99.90
44166;DHT22;30476;53.468;9.826;2023-02-28T02:20:07;3.80;99.90
44166;DHT22;30476;53.468;9.826;2023-02-28T02:23:01;3.80;99.90
44166;DHT22;30476;53.468;9.826;2023-02-28T02:25:42;3.70;99.90
44166;DHT22;30476;53.468;9.826;2023-02-28T02:36:50;3.50;99.90
44166;DHT22;30476;53.468;9.826;2023-02-28T02:39:31;3.40;99.90
44166;DHT22;30476;53.468;9.826;2023-02-28T02:42:02;3.30;99.90
44166;DHT22;30476;53.468;9.826;2023-02-28T02:44:40;3.30;99.90
44166;DHT22;30476;53.468;9.826;2023-02-28T02:47:13;3.20;99.90
44166;DHT22;30476;53.468;9.826;2023-02-28T02:49:44;3.10;99.90
44166;DHT22;30476;53.468;9.826;2023-02-28T02:52:15;3.10;99.90
44166;DHT22;30476;53.468;9.826;2023-02-28T02:54:44;3.00;99.90
44166;DHT22;30476;53.468;9.826;2023-02-28T02:57:18;2.90;99.90
44166;DHT22;30476;53.468;9.826;2023-02-28T02:59:47;2.80;99.90
44166;DHT22;30476;53.468;9.826;2023-02-28T03:02:16;2.80;99.90
44166;DHT22;30476;53.468;9.826;2023-02-28T03:04:50;2.80;99.90
44166;DHT22;30476;53.468;9.826;2023-02-28T03:07:17;2.80;99.90
44166;DHT22;30476;53.468;9.826;2023-02-28T03:09:51;2.70;99.90
44166;DHT22;30476;53.468;9.826;2023-02-28T03:12:17;2.70;99.90
44166;DHT22;30476;53.468;9.826;2023-02-28T03:14:56;2.60;99.90
44166;DHT22;30476;53.468;9.826;2023-02-28T03:17:49;2.60;99.90
44166;DHT22;30476;53.468;9.826;2023-02-28T03:20:50;2.50;99.90
44166;DHT22;30476;53.468;9.826;2023-02-28T03:23:32;2.50;99.90
44166;DHT22;30476;53.468;9.826;2023-02-28T03:26:06;2.50;99.90
44166;DHT22;30476;53.468;9.826;2023-02-28T03:31:39;2.30;99.90
44166;DHT22;30476;53.468;9.826;2023-02-28T03:34:34;2.30;99.90
44166;DHT22;30476;53.468;9.826;2023-02-28T03:37:07;2.20;99.90
44166;DHT22;30476;53.468;9.826;2023-02-28T03:39:39;2.20;99.90
44166;DHT22;30476;53.468;9.826;2023-02-28T03:42:18;2.20;99.90
44166;DHT22;30476;53.468;9.826;2023-02-28T03:44:48;2.10;99.90
44166;DHT22;30476;53.468;9.826;2023-02-28T03:48:03;2.10;99.90
44166;DHT22;30476;53.468;9.826;2023-02-28T03:50:42;2.10;99.90
44166;DHT22;30476;53.468;9.826;2023-02-28T03:55:47;2.10;99.90
44166;DHT22;30476;53.468;9.826;2023-02-28T03:58:32;2.10;99.90
44166;DHT22;30476;53.468;9.826;2023-02-28T04:01:28;2.10;99.90
44166;DHT22;30476;53.468;9.826;2023-02-28T04:03:56;2.00;99.90
44166;DHT22;30476;53.468;9.826;2023-02-28T04:06:23;2.00;99.90
44166;DHT22;30476;53.468;9.826;2023-02-28T04:08:49;1.90;99.90
44166;DHT22;30476;53.468;9.826;2023-02-28T04:11:27;1.90;99.90
44166;DHT22;30476;53.468;9.826;2023-02-28T04:13:55;1.90;99.90
44166;DHT22;30476;53.468;9.826;2023-02-28T04:16:21;1.90;99.90
44166;DHT22;30476;53.468;9.826;2023-02-28T04:18:47;1.80;99.90
44166;DHT22;30476;53.468;9.826;2023-02-28T04:21:13;1.70;99.90
44166;DHT22;30476;53.468;9.826;2023-02-28T04:23:39;1.80;99.90
44166;DHT22;30476;53.468;9.826;2023-02-28T04:26:06;1.60;99.90
44166;DHT22;30476;53.468;9.826;2023-02-28T04:28:32;1.70;99.90
44166;DHT22;30476;53.468;9.826;2023-02-28T04:31:04;1.70;99.90
44166;DHT22;30476;53.468;9.826;2023-02-28T04:33:31;1.60;99.90
44166;DHT22;30476;53.468;9.826;2023-02-28T04:35:59;1.60;99.90
44166;DHT22;30476;53.468;9.826;2023-02-28T04:38:25;1.70;99.90
44166;DHT22;30476;53.468;9.826;2023-02-28T04:40:51;1.60;99.90
44166;DHT22;30476;53.468;9.826;2023-02-28T04:43:16;1.50;99.90
44166;DHT22;30476;53.468;9.826;2023-02-28T04:45:42;1.50;99.90
44166;DHT22;30476;53.468;9.826;2023-02-28T04:48:08;1.50;99.90
44166;DHT22;30476;53.468;9.826;2023-02-28T04:50:34;1.50;99.90
44166;DHT22;30476;53.468;9.826;2023-02-28T04:52:59;1.50;99.90
44166;DHT22;30476;53.468;9.826;2023-02-28T04:55:25;1.40;99.90
44166;DHT22;30476;53.468;9.826;2023-02-28T04:57:51;1.40;99.90
44166;DHT22;30476;53.468;9.826;2023-02-28T05:00:17;1.40;99.90
44166;DHT22;30476;53.468;9.826;2023-02-28T05:02:43;1.40;99.90
44166;DHT22;30476;53.468;9.826;2023-02-28T05:05:09;1.40;99.90
44166;DHT22;30476;53.468;9.826;2023-02-28T05:07:35;1.30;99.90
44166;DHT22;30476;53.468;9.826;2023-02-28T05:10:00;1.20;99.90
44166;DHT22;30476;53.468;9.826;2023-02-28T05:12:26;1.20;99.90
44166;DHT22;30476;53.468;9.826;2023-02-28T05:14:52;1.20;99.90
44166;DHT22;30476;53.468;9.826;2023-02-28T05:17:18;1.20;99.90
44166;DHT22;30476;53.468;9.826;2023-02-28T05:19:43;1.20;99.90
44166;DHT22;30476;53.468;9.826;2023-02-28T05:22:13;1.20;99.90
44166;DHT22;30476;53.468;9.826;2023-02-28T05:24:41;1.20;99.90
44166;DHT22;30476;53.468;9.826;2023-02-28T05:27:08;1.00;99.90
44166;DHT22;30476;53.468;9.826;2023-02-28T05:29:33;1.00;99.90
44166;DHT22;30476;53.468;9.826;2023-02-28T05:31:59;1.00;99.90
44166;DHT22;30476;53.468;9.826;2023-02-28T05:34:25;0.90;99.90
44166;DHT22;30476;53.468;9.826;2023-02-28T05:36:51;0.90;99.90
44166;DHT22;30476;53.468;9.826;2023-02-28T05:39:17;0.90;99.90
44166;DHT22;30476;53.468;9.826;2023-02-28T05:41:43;0.80;99.90
44166;DHT22;30476;53.468;9.826;2023-02-28T05:44:09;0.80;99.90
44166;DHT22;30476;53.468;9.826;2023-02-28T05:46:35;0.80;99.90
44166;DHT22;30476;53.468;9.826;2023-02-28T05:49:01;0.80;99.90
44166;DHT22;30476;53.468;9.826;2023-02-28T05:51:27;0.80;99.90
44166;DHT22;30476;53.468;9.826;2023-02-28T05:53:53;0.80;99.90
44166;DHT22;30476;53.468;9.826;2023-02-28T05:56:19;0.80;99.90
44166;DHT22;30476;53.468;9.826;2023-02-28T05:58:44;0.80;99.90
44166;DHT22;30476;53.468;9.826;2023-02-28T06:01:23;0.80;99.90
44166;DHT22;30476;53.468;9.826;2023-02-28T06:03:49;0.80;99.90
44166;DHT22;30476;53.468;9.826;2023-02-28T06:06:15;0.80;99.90
44166;DHT22;30476;53.468;9.826;2023-02-28T06:08:41;0.80;99.90
44166;DHT22;30476;53.468;9.826;2023-02-28T06:11:08;0.80;99.90
44166;DHT22;30476;53.468;9.826;2023-02-28T06:13:34;0.80;99.90
44166;DHT22;30476;53.468;9.826;2023-02-28T06:16:01;0.80;99.90
44166;DHT22;30476;53.468;9.826;2023-02-28T06:18:27;0.80;99.90
44166;DHT22;30476;53.468;9.826;2023-02-28T06:20:53;0.70;99.90
44166;DHT22;30476;53.468;9.826;2023-02-28T06:23:22;0.70;99.90
44166;DHT22;30476;53.468;9.826;2023-02-28T06:25:48;0.70;99.90
44166;DHT22;30476;53.468;9.826;2023-02-28T06:28:15;0.70;99.90
44166;DHT22;30476;53.468;9.826;2023-02-28T06:30:41;0.70;99.90
44166;DHT22;30476;53.468;9.826;2023-02-28T06:33:07;0.60;99.90
44166;DHT22;30476;53.468;9.826;2023-02-28T06:35:33;0.60;99.90
44166;DHT22;30476;53.468;9.826;2023-02-28T06:37:58;0.60;99.90
44166;DHT22;30476;53.468;9.826;2023-02-28T06:40:24;0.60;99.90
44166;DHT22;30476;53.468;9.826;2023-02-28T06:42:50;0.70;99.90
44166;DHT22;30476;53.468;9.826;2023-02-28T06:45:16;0.60;99.90
44166;DHT22;30476;53.468;9.826;2023-02-28T06:47:42;0.60;99.90
44166;DHT22;30476;53.468;9.826;2023-02-28T06:50:11;0.60;99.90
44166;DHT22;30476;53.468;9.826;2023-02-28T06:52:37;0.60;99.90
44166;DHT22;30476;53.468;9.826;2023-02-28T06:55:05;0.60;99.90
44166;DHT22;30476;53.468;9.826;2023-02-28T06:57:32;0.60;99.90
44166;DHT22;30476;53.468;9.826;2023-02-28T06:59:59;0.60;99.90
44166;DHT22;30476;53.468;9.826;2023-02-28T07:02:26;0.60;99.90
44166;DHT22;30476;53.468;9.826;2023-02-28T07:04:52;0.70;99.90
44166;DHT22;30476;53.468;9.826;2023-02-28T07:07:18;0.70;99.90
44166;DHT22;30476;53.468;9.826;2023-02-28T07:09:44;0.80;99.90
44166;DHT22;30476;53.468;9.826;2023-02-28T07:12:09;0.70;99.90
44166;DHT22;30476;53.468;9.826;2023-02-28T07:14:36;0.80;99.90
44166;DHT22;30476;53.468;9.826;2023-02-28T07:17:02;0.80;99.90
44166;DHT22;30476;53.468;9.826;2023-02-28T07:19:28;0.90;99.90
44166;DHT22;30476;53.468;9.826;2023-02-28T07:21:54;0.80;99.90
44166;DHT22;30476;53.468;9.826;2023-02-28T07:24:20;0.90;99.90
44166;DHT22;30476;53.468;9.826;2023-02-28T07:26:46;0.90;99.90
44166;DHT22;30476;53.468;9.826;2023-02-28T07:29:12;0.90;99.90
44166;DHT22;30476;53.468;9.826;2023-02-28T07:31:38;1.00;99.90
44166;DHT22;30476;53.468;9.826;2023-02-28T07:34:04;1.00;99.90
44166;DHT22;30476;53.468;9.826;2023-02-28T07:36:30;1.00;99.90
44166;DHT22;30476;53.468;9.826;2023-02-28T07:38:55;1.10;99.90
44166;DHT22;30476;53.468;9.826;2023-02-28T07:41:22;1.10;99.90
44166;DHT22;30476;53.468;9.826;2023-02-28T07:43:49;1.10;99.90
44166;DHT22;30476;53.468;9.826;2023-02-28T07:46:16;1.10;99.90
44166;DHT22;30476;53.468;9.826;2023-02-28T07:48:43;1.20;99.90
44166;DHT22;30476;53.468;9.826;2023-02-28T07:51:09;1.20;99.90
44166;DHT22;30476;53.468;9.826;2023-02-28T07:53:35;1.30;99.90
44166;DHT22;30476;53.468;9.826;2023-02-28T07:56:02;1.30;99.90
44166;DHT22;30476;53.468;9.826;2023-02-28T07:58:28;1.30;99.90
44166;DHT22;30476;53.468;9.826;2023-02-28T08:00:55;1.40;99.90
44166;DHT22;30476;53.468;9.826;2023-02-28T08:03:22;1.40;99.90
44166;DHT22;30476;53.468;9.826;2023-02-28T08:05:49;1.40;99.90
44166;DHT22;30476;53.468;9.826;2023-02-28T08:08:15;1.50;99.90
44166;DHT22;30476;53.468;9.826;2023-02-28T08:10:43;1.50;99.90
44166;DHT22;30476;53.468;9.826;2023-02-28T08:13:09;1.60;99.90
44166;DHT22;30476;53.468;9.826;2023-02-28T08:15:35;1.70;99.90
44166;DHT22;30476;53.468;9.826;2023-02-28T08:18:02;1.70;99.90
44166;DHT22;30476;53.468;9.826;2023-02-28T08:20:28;1.70;99.90
44166;DHT22;30476;53.468;9.826;2023-02-28T08:22:54;1.80;99.90
44166;DHT22;30476;53.468;9.826;2023-02-28T08:25:20;1.90;99.90
44166;DHT22;30476;53.468;9.826;2023-02-28T08:27:46;2.00;99.90
44166;DHT22;30476;53.468;9.826;2023-02-28T08:30:13;2.00;99.90
44166;DHT22;30476;53.468;9.826;2023-02-28T08:32:40;2.10;99.90
44166;DHT22;30476;53.468;9.826;2023-02-28T08:35:06;2.20;99.90
44166;DHT22;30476;53.468;9.826;2023-02-28T08:37:32;2.20;99.90
44166;DHT22;30476;53.468;9.826;2023-02-28T08:39:58;2.30;99.90
44166;DHT22;30476;53.468;9.826;2023-02-28T08:42:24;2.40;99.90
44166;DHT22;30476;53.468;9.826;2023-02-28T08:44:50;2.50;99.90
44166;DHT22;30476;53.468;9.826;2023-02-28T08:47:16;2.60;99.90
44166;DHT22;30476;53.468;9.826;2023-02-28T08:49:41;2.70;99.90
44166;DHT22;30476;53.468;9.826;2023-02-28T08:52:07;2.70;99.90
44166;DHT22;30476;53.468;9.826;2023-02-28T08:54:33;2.80;99.90
44166;DHT22;30476;53.468;9.826;2023-02-28T08:57:00;2.90;99.90
44166;DHT22;30476;53.468;9.826;2023-02-28T08:59:25;3.00;99.90
44166;DHT22;30476;53.468;9.826;2023-02-28T09:01:51;3.10;99.90
44166;DHT22;30476;53.468;9.826;2023-02-28T09:04:17;3.10;99.90
44166;DHT22;30476;53.468;9.826;2023-02-28T09:06:43;3.20;99.90
44166;DHT22;30476;53.468;9.826;2023-02-28T09:09:09;3.30;99.90
44166;DHT22;30476;53.468;9.826;2023-02-28T09:11:36;3.40;99.90
44166;DHT22;30476;53.468;9.826;2023-02-28T09:14:02;3.40;99.90
44166;DHT22;30476;53.468;9.826;2023-02-28T09:16:30;3.50;99.90
44166;DHT22;30476;53.468;9.826;2023-02-28T09:18:56;3.60;99.90
44166;DHT22;30476;53.468;9.826;2023-02-28T09:21:22;3.70;99.90
44166;DHT22;30476;53.468;9.826;2023-02-28T09:23:49;3.70;99.90
44166;DHT22;30476;53.468;9.826;2023-02-28T09:26:17;3.80;99.90
44166;DHT22;30476;53.468;9.826;2023-02-28T09:28:43;3.90;99.90
44166;DHT22;30476;53.468;9.826;2023-02-28T09:31:18;3.90;99.90
44166;DHT22;30476;53.468;9.826;2023-02-28T09:33:49;4.00;99.90
44166;DHT22;30476;53.468;9.826;2023-02-28T09:36:15;4.10;99.90
44166;DHT22;30476;53.468;9.826;2023-02-28T09:38:41;4.10;99.90
44166;DHT22;30476;53.468;9.826;2023-02-28T09:41:14;4.20;99.90
44166;DHT22;30476;53.468;9.826;2023-02-28T09:43:44;4.20;99.90
44166;DHT22;30476;53.468;9.826;2023-02-28T09:48:57;4.40;99.90
44166;DHT22;30476;53.468;9.826;2023-02-28T09:54:18;4.60;99.90
44166;DHT22;30476;53.468;9.826;2023-02-28T09:56:53;4.60;99.90
44166;DHT22;30476;53.468;9.826;2023-02-28T10:02:53;4.70;99.90
44166;DHT22;30476;53.468;9.826;2023-02-28T10:05:33;4.80;99.20
44166;DHT22;30476;53.468;9.826;2023-02-28T10:08:10;4.90;99.00
44166;DHT22;30476;53.468;9.826;2023-02-28T10:10:49;4.90;98.70
44166;DHT22;30476;53.468;9.826;2023-02-28T10:13:33;4.90;98.70
44166;DHT22;30476;53.468;9.826;2023-02-28T10:16:10;5.10;98.80
44166;DHT22;30476;53.468;9.826;2023-02-28T10:18:48;5.10;99.20
44166;DHT22;30476;53.468;9.826;2023-02-28T10:21:38;5.20;99.10
44166;DHT22;30476;53.468;9.826;2023-02-28T10:29:45;5.50;98.50
44166;DHT22;30476;53.468;9.826;2023-02-28T10:32:14;5.60;98.50
44166;DHT22;30476;53.468;9.826;2023-02-28T10:34:41;5.70;98.30
44166;DHT22;30476;53.468;9.826;2023-02-28T10:37:07;5.80;97.80
44166;DHT22;30476;53.468;9.826;2023-02-28T10:42:03;6.00;97.70
44166;DHT22;30476;53.468;9.826;2023-02-28T10:44:29;6.20;97.10
44166;DHT22;30476;53.468;9.826;2023-02-28T10:46:56;6.30;96.80
44166;DHT22;30476;53.468;9.826;2023-02-28T10:49:28;6.40;96.70
44166;DHT22;30476;53.468;9.826;2023-02-28T10:51:57;6.50;97.50
44166;DHT22;30476;53.468;9.826;2023-02-28T10:54:34;6.80;97.30
44166;DHT22;30476;53.468;9.826;2023-02-28T10:57:11;7.00;97.30
44166;DHT22;30476;53.468;9.826;2023-02-28T10:59:39;7.20;96.20
44166;DHT22;30476;53.468;9.826;2023-02-28T11:02:32;7.50;97.00
44166;DHT22;30476;53.468;9.826;2023-02-28T11:04:58;7.80;97.10
44166;DHT22;30476;53.468;9.826;2023-02-28T11:07:26;8.20;96.50
44166;DHT22;30476;53.468;9.826;2023-02-28T11:09:57;8.50;97.20
44166;DHT22;30476;53.468;9.826;2023-02-28T11:15:06;9.00;99.90
44166;DHT22;30476;53.468;9.826;2023-02-28T11:17:42;9.30;99.90
44166;DHT22;30476;53.468;9.826;2023-02-28T11:20:20;9.80;99.90
44166;DHT22;30476;53.468;9.826;2023-02-28T11:22:47;10.20;99.30
44166;DHT22;30476;53.468;9.826;2023-02-28T11:25:22;10.40;97.60
44166;DHT22;30476;53.468;9.826;2023-02-28T11:27:52;10.60;97.60
44166;DHT22;30476;53.468;9.826;2023-02-28T11:30:29;10.70;95.20
44166;DHT22;30476;53.468;9.826;2023-02-28T11:32:55;10.80;90.90
44166;DHT22;30476;53.468;9.826;2023-02-28T11:35:26;10.80;92.10
44166;DHT22;30476;53.468;9.826;2023-02-28T11:37:52;10.90;90.60
44166;DHT22;30476;53.468;9.826;2023-02-28T11:40:24;10.80;89.60
44166;DHT22;30476;53.468;9.826;2023-02-28T11:46:29;11.10;87.90
44166;DHT22;30476;53.468;9.826;2023-02-28T11:48:58;11.20;84.70
44166;DHT22;30476;53.468;9.826;2023-02-28T11:51:35;11.20;86.50
44166;DHT22;30476;53.468;9.826;2023-02-28T11:54:33;11.30;81.80
44166;DHT22;30476;53.468;9.826;2023-02-28T11:57:27;11.30;82.90
44166;DHT22;30476;53.468;9.826;2023-02-28T12:00:06;11.50;86.60
44166;DHT22;30476;53.468;9.826;2023-02-28T12:10:29;12.30;85.40
44166;DHT22;30476;53.468;9.826;2023-02-28T12:13:18;12.40;82.00
44166;DHT22;30476;53.468;9.826;2023-02-28T12:16:01;12.50;83.20
44166;DHT22;30476;53.468;9.826;2023-02-28T12:21:27;12.70;78.00
44166;DHT22;30476;53.468;9.826;2023-02-28T12:26:49;13.00;73.00
44166;DHT22;30476;53.468;9.826;2023-02-28T12:29:30;13.00;73.80
44166;DHT22;30476;53.468;9.826;2023-02-28T12:32:17;13.10;75.70
44166;DHT22;30476;53.468;9.826;2023-02-28T12:35:22;13.20;74.90
44166;DHT22;30476;53.468;9.826;2023-02-28T12:37:59;13.30;73.80
44166;DHT22;30476;53.468;9.826;2023-02-28T12:41:09;13.30;73.50
44166;DHT22;30476;53.468;9.826;2023-02-28T12:43:30;13.30;69.80
44166;DHT22;30476;53.468;9.826;2023-02-28T12:46:09;13.30;72.90
44166;DHT22;30476;53.468;9.826;2023-02-28T12:48:55;13.30;71.50
44166;DHT22;30476;53.468;9.826;2023-02-28T12:51:23;13.40;68.90
44166;DHT22;30476;53.468;9.826;2023-02-28T12:53:53;13.10;65.60
44166;DHT22;30476;53.468;9.826;2023-02-28T12:59:23;13.00;64.50
44166;DHT22;30476;53.468;9.826;2023-02-28T13:05:06;13.00;65.00
44166;DHT22;30476;53.468;9.826;2023-02-28T13:10:46;13.20;67.90
44166;DHT22;30476;53.468;9.826;2023-02-28T13:13:18;13.40;65.40
44166;DHT22;30476;53.468;9.826;2023-02-28T13:16:04;13.50;62.10
44166;DHT22;30476;53.468;9.826;2023-02-28T13:21:00;13.60;60.80
44166;DHT22;30476;53.468;9.826;2023-02-28T13:26:16;13.60;58.70
44166;DHT22;30476;53.468;9.826;2023-02-28T13:31:15;13.80;59.00
44166;DHT22;30476;53.468;9.826;2023-02-28T13:38:48;13.70;57.00
44166;DHT22;30476;53.468;9.826;2023-02-28T13:44:17;13.80;56.20
44166;DHT22;30476;53.468;9.826;2023-02-28T13:52:07;14.10;52.60
44166;DHT22;30476;53.468;9.826;2023-02-28T13:54:52;14.10;52.00
44166;DHT22;30476;53.468;9.826;2023-02-28T14:00:36;14.20;51.60
44166;DHT22;30476;53.468;9.826;2023-02-28T14:08:48;14.20;50.00
44166;DHT22;30476;53.468;9.826;2023-02-28T14:11:31;14.20;49.50
44166;DHT22;30476;53.468;9.826;2023-02-28T14:13:57;14.20;47.00
44166;DHT22;30476;53.468;9.826;2023-02-28T14:16:27;14.00;48.60
44166;DHT22;30476;53.468;9.826;2023-02-28T14:18:59;14.00;46.50
44166;DHT22;30476;53.468;9.826;2023-02-28T14:21:31;14.00;47.70
44166;DHT22;30476;53.468;9.826;2023-02-28T14:24:19;13.90;45.60
44166;DHT22;30476;53.468;9.826;2023-02-28T14:36:04;13.50;46.10
44166;DHT22;30476;53.468;9.826;2023-02-28T14:38:36;13.40;47.20
44166;DHT22;30476;53.468;9.826;2023-02-28T14:41:05;13.20;46.90
44166;DHT22;30476;53.468;9.826;2023-02-28T14:43:32;13.10;46.60
44166;DHT22;30476;53.468;9.826;2023-02-28T14:46:01;13.00;47.20
44166;DHT22;30476;53.468;9.826;2023-02-28T14:48:27;12.90;48.10
44166;DHT22;30476;53.468;9.826;2023-02-28T14:50:59;12.70;46.80
44166;DHT22;30476;53.468;9.826;2023-02-28T14:53:28;12.50;48.20
44166;DHT22;30476;53.468;9.826;2023-02-28T14:55:55;12.40;47.90
44166;DHT22;30476;53.468;9.826;2023-02-28T14:58:29;12.20;48.30
44166;DHT22;30476;53.468;9.826;2023-02-28T15:00:59;12.10;48.30
44166;DHT22;30476;53.468;9.826;2023-02-28T15:06:21;11.80;48.60
44166;DHT22;30476;53.468;9.826;2023-02-28T15:08:48;11.60;48.90
44166;DHT22;30476;53.468;9.826;2023-02-28T15:11:32;11.50;49.90
44166;DHT22;30476;53.468;9.826;2023-02-28T15:13:58;11.30;50.10
44166;DHT22;30476;53.468;9.826;2023-02-28T15:16:44;11.30;50.50
44166;DHT22;30476;53.468;9.826;2023-02-28T15:19:30;11.10;50.90
44166;DHT22;30476;53.468;9.826;2023-02-28T15:22:07;11.00;51.80
44166;DHT22;30476;53.468;9.826;2023-02-28T15:24:43;10.90;52.00
44166;DHT22;30476;53.468;9.826;2023-02-28T15:27:20;10.70;51.90
44166;DHT22;30476;53.468;9.826;2023-02-28T15:29:54;10.60;52.30
44166;DHT22;30476;53.468;9.826;2023-02-28T15:32:37;10.50;52.70
44166;DHT22;30476;53.468;9.826;2023-02-28T15:35:27;10.30;53.80
44166;DHT22;30476;53.468;9.826;2023-02-28T15:37:55;10.30;54.90
44166;DHT22;30476;53.468;9.826;2023-02-28T15:40:37;10.10;53.80
44166;DHT22;30476;53.468;9.826;2023-02-28T15:43:15;10.00;55.10
44166;DHT22;30476;53.468;9.826;2023-02-28T15:45:52;10.00;56.70
44166;DHT22;30476;53.468;9.826;2023-02-28T15:48:30;9.80;58.50
44166;DHT22;30476;53.468;9.826;2023-02-28T15:51:12;9.80;58.80
44166;DHT22;30476;53.468;9.826;2023-02-28T15:54:05;9.70;58.50
44166;DHT22;30476;53.468;9.826;2023-02-28T15:56:42;9.70;58.80
44166;DHT22;30476;53.468;9.826;2023-02-28T15:59:16;9.60;59.20
44166;DHT22;30476;53.468;9.826;2023-02-28T16:01:43;9.40;59.40
44166;DHT22;30476;53.468;9.826;2023-02-28T16:04:17;9.30;59.50
44166;DHT22;30476;53.468;9.826;2023-02-28T16:06:44;9.30;59.50
44166;DHT22;30476;53.468;9.826;2023-02-28T16:09:15;9.20;59.70
44166;DHT22;30476;53.468;9.826;2023-02-28T16:11:49;9.10;59.20
44166;DHT22;30476;53.468;9.826;2023-02-28T16:14:19;9.00;59.50
44166;DHT22;30476;53.468;9.826;2023-02-28T16:16:49;8.90;60.80
44166;DHT22;30476;53.468;9.826;2023-02-28T16:19:15;8.90;60.40
44166;DHT22;30476;53.468;9.826;2023-02-28T16:21:42;8.80;61.40
44166;DHT22;30476;53.468;9.826;2023-02-28T16:24:08;8.60;61.30
44166;DHT22;30476;53.468;9.826;2023-02-28T16:26:34;8.60;62.00
44166;DHT22;30476;53.468;9.826;2023-02-28T16:29:01;8.50;61.70
44166;DHT22;30476;53.468;9.826;2023-02-28T16:31:27;8.40;62.50
44166;DHT22;30476;53.468;9.826;2023-02-28T16:33:54;8.30;63.10
44166;DHT22;30476;53.468;9.826;2023-02-28T16:36:22;8.30;63.50
44166;DHT22;30476;53.468;9.826;2023-02-28T16:38:50;8.20;64.00
44166;DHT22;30476;53.468;9.826;2023-02-28T16:41:19;8.10;64.30
44166;DHT22;30476;53.468;9.826;2023-02-28T16:43:47;8.00;64.80
44166;DHT22;30476;53.468;9.826;2023-02-28T16:46:14;7.90;65.40
44166;DHT22;30476;53.468;9.826;2023-02-28T16:48:40;7.80;65.80
44166;DHT22;30476;53.468;9.826;2023-02-28T16:51:12;7.70;66.20
44166;DHT22;30476;53.468;9.826;2023-02-28T16:53:38;7.60;66.90
44166;DHT22;30476;53.468;9.826;2023-02-28T16:56:04;7.50;67.70
44166;DHT22;30476;53.468;9.826;2023-02-28T16:58:33;7.40;68.20
44166;DHT22;30476;53.468;9.826;2023-02-28T17:01:02;7.30;69.10
44166;DHT22;30476;53.468;9.826;2023-02-28T17:03:28;7.20;69.40
44166;DHT22;30476;53.468;9.826;2023-02-28T17:05:54;7.10;69.90
44166;DHT22;30476;53.468;9.826;2023-02-28T17:08:20;6.90;71.30
44166;DHT22;30476;53.468;9.826;2023-02-28T17:10:46;6.80;70.80
44166;DHT22;30476;53.468;9.826;2023-02-28T17:13:12;6.70;71.30
44166;DHT22;30476;53.468;9.826;2023-02-28T17:15:38;6.60;72.10
44166;DHT22;30476;53.468;9.826;2023-02-28T17:18:05;6.50;72.80
44166;DHT22;30476;53.468;9.826;2023-02-28T17:20:31;6.40;73.50
44166;DHT22;30476;53.468;9.826;2023-02-28T17:22:57;6.20;73.30
44166;DHT22;30476;53.468;9.826;2023-02-28T17:25:24;6.10;73.90
44166;DHT22;30476;53.468;9.826;2023-02-28T17:27:50;6.00;73.90
44166;DHT22;30476;53.468;9.826;2023-02-28T17:30:21;5.80;73.60
44166;DHT22;30476;53.468;9.826;2023-02-28T17:32:47;5.70;74.00
44166;DHT22;30476;53.468;9.826;2023-02-28T17:35:13;5.60;74.40
44166;DHT22;30476;53.468;9.826;2023-02-28T17:37:40;5.60;76.60
44166;DHT22;30476;53.468;9.826;2023-02-28T17:40:06;5.40;76.10
44166;DHT22;30476;53.468;9.826;2023-02-28T17:42:32;5.30;76.10
44166;DHT22;30476;53.468;9.826;2023-02-28T17:44:58;5.10;77.00